Meadows Place, Texas
Current Conditions -  °F | °C
As of 2:53 AM on Thursday 27 Nov 2014 (Local Time) from KSGR Reporting Station
Clear Clear  
Wind Chill: 44°   Ceiling: Unl
Heat Index: 48°   Visibility: 10mi
Dew Point: 41°   Wind: 8mph
Humidity: 77%   Direction: 10°N
Pressure: 30.36"   Gusts: NA
Location:  29.6248°N, 95.5633°W
Report Text: KSGR 270853Z AUTO 01007KT 10SM CLR 09/05 A3036 RMK AO2 SLP282 T00890050 51011
Loading
Personal Weather Stations






























Interactive Weather Map New forecast layout! Learn more

10-Day Weather Forecast

Advertisements
Track Severe Weather on mobile